sensor_id;sensor_type;location;lat;lon;timestamp;temperature;humidity
31731;DHT22;18310;55.586;12.286;2022-12-18T00:01:01;1.10;70.10
31731;DHT22;18310;55.586;12.286;2022-12-18T00:04:15;1.10;69.90
31731;DHT22;18310;55.586;12.286;2022-12-18T00:07:29;2.60;70.80
31731;DHT22;18310;55.586;12.286;2022-12-18T00:10:32;1.10;69.80
31731;DHT22;18310;55.586;12.286;2022-12-18T00:13:35;1.10;69.80
31731;DHT22;18310;55.586;12.286;2022-12-18T00:16:40;2.00;70.40
31731;DHT22;18310;55.586;12.286;2022-12-18T00:19:45;1.10;69.80
31731;DHT22;18310;55.586;12.286;2022-12-18T00:22:49;0.50;69.50
31731;DHT22;18310;55.586;12.286;2022-12-18T00:25:52;1.10;70.00
31731;DHT22;18310;55.586;12.286;2022-12-18T00:28:58;1.10;69.80
31731;DHT22;18310;55.586;12.286;2022-12-18T00:32:02;1.10;69.90
31731;DHT22;18310;55.586;12.286;2022-12-18T00:35:06;1.10;69.90
31731;DHT22;18310;55.586;12.286;2022-12-18T00:38:11;1.10;69.90
31731;DHT22;18310;55.586;12.286;2022-12-18T00:41:16;1.10;69.80
31731;DHT22;18310;55.586;12.286;2022-12-18T00:44:39;1.20;69.90
31731;DHT22;18310;55.586;12.286;2022-12-18T00:47:42;1.20;69.80
31731;DHT22;18310;55.586;12.286;2022-12-18T00:50:47;1.20;69.80
31731;DHT22;18310;55.586;12.286;2022-12-18T00:53:52;1.40;69.80
31731;DHT22;18310;55.586;12.286;2022-12-18T00:56:56;1.30;69.80
31731;DHT22;18310;55.586;12.286;2022-12-18T00:59:59;2.00;70.30
31731;DHT22;18310;55.586;12.286;2022-12-18T01:03:02;1.20;69.70
31731;DHT22;18310;55.586;12.286;2022-12-18T01:06:06;1.30;69.70
31731;DHT22;18310;55.586;12.286;2022-12-18T01:09:12;1.30;69.50
31731;DHT22;18310;55.586;12.286;2022-12-18T01:12:15;1.30;69.40
31731;DHT22;18310;55.586;12.286;2022-12-18T01:15:19;2.30;69.80
31731;DHT22;18310;55.586;12.286;2022-12-18T01:18:22;1.30;69.20
31731;DHT22;18310;55.586;12.286;2022-12-18T01:21:25;1.30;69.20
31731;DHT22;18310;55.586;12.286;2022-12-18T01:24:30;1.30;69.10
31731;DHT22;18310;55.586;12.286;2022-12-18T01:27:34;1.30;68.90
31731;DHT22;18310;55.586;12.286;2022-12-18T01:30:37;1.40;69.00
31731;DHT22;18310;55.586;12.286;2022-12-18T01:33:40;1.30;68.90
31731;DHT22;18310;55.586;12.286;2022-12-18T01:36:43;1.40;68.90
31731;DHT22;18310;55.586;12.286;2022-12-18T01:39:48;1.40;68.70
31731;DHT22;18310;55.586;12.286;2022-12-18T01:42:52;1.40;68.80
31731;DHT22;18310;55.586;12.286;2022-12-18T01:45:59;1.40;68.80
31731;DHT22;18310;55.586;12.286;2022-12-18T01:49:02;1.40;68.80
31731;DHT22;18310;55.586;12.286;2022-12-18T01:52:05;2.10;69.20
31731;DHT22;18310;55.586;12.286;2022-12-18T01:55:11;1.40;68.70
31731;DHT22;18310;55.586;12.286;2022-12-18T01:58:16;1.40;68.70
31731;DHT22;18310;55.586;12.286;2022-12-18T02:01:20;1.40;68.50
31731;DHT22;18310;55.586;12.286;2022-12-18T02:04:27;1.40;68.60
31731;DHT22;18310;55.586;12.286;2022-12-18T02:07:37;1.40;68.60
31731;DHT22;18310;55.586;12.286;2022-12-18T02:10:57;0.00;67.70
31731;DHT22;18310;55.586;12.286;2022-12-18T02:14:15;1.40;68.40
31731;DHT22;18310;55.586;12.286;2022-12-18T02:17:29;1.60;68.50
31731;DHT22;18310;55.586;12.286;2022-12-18T02:20:43;1.40;68.30
31731;DHT22;18310;55.586;12.286;2022-12-18T02:23:56;1.50;68.20
31731;DHT22;18310;55.586;12.286;2022-12-18T02:27:09;1.50;68.10
31731;DHT22;18310;55.586;12.286;2022-12-18T02:30:14;1.50;68.10
31731;DHT22;18310;55.586;12.286;2022-12-18T02:33:19;0.70;67.60
31731;DHT22;18310;55.586;12.286;2022-12-18T02:36:24;1.50;67.90
31731;DHT22;18310;55.586;12.286;2022-12-18T02:39:29;1.40;67.70
31731;DHT22;18310;55.586;12.286;2022-12-18T02:42:36;1.50;67.80
31731;DHT22;18310;55.586;12.286;2022-12-18T02:45:47;1.50;67.80
31731;DHT22;18310;55.586;12.286;2022-12-18T02:48:57;1.50;67.60
31731;DHT22;18310;55.586;12.286;2022-12-18T02:52:16;1.50;67.60
31731;DHT22;18310;55.586;12.286;2022-12-18T02:55:41;1.50;67.60
31731;DHT22;18310;55.586;12.286;2022-12-18T02:58:59;2.90;68.40
31731;DHT22;18310;55.586;12.286;2022-12-18T03:02:20;1.50;67.70
31731;DHT22;18310;55.586;12.286;2022-12-18T03:05:31;1.50;67.80
31731;DHT22;18310;55.586;12.286;2022-12-18T03:08:42;1.60;68.10
31731;DHT22;18310;55.586;12.286;2022-12-18T03:11:50;1.60;68.20
31731;DHT22;18310;55.586;12.286;2022-12-18T03:15:20;1.70;68.30
31731;DHT22;18310;55.586;12.286;2022-12-18T03:18:31;1.70;68.30
31731;DHT22;18310;55.586;12.286;2022-12-18T03:21:41;2.20;69.10
31731;DHT22;18310;55.586;12.286;2022-12-18T03:24:46;1.80;68.20
31731;DHT22;18310;55.586;12.286;2022-12-18T03:27:54;0.80;67.50
31731;DHT22;18310;55.586;12.286;2022-12-18T03:31:02;2.50;68.30
31731;DHT22;18310;55.586;12.286;2022-12-18T03:34:14;2.10;68.00
31731;DHT22;18310;55.586;12.286;2022-12-18T03:37:20;2.20;67.90
31731;DHT22;18310;55.586;12.286;2022-12-18T03:40:28;1.90;67.60
31731;DHT22;18310;55.586;12.286;2022-12-18T03:43:40;1.90;67.50
31731;DHT22;18310;55.586;12.286;2022-12-18T03:46:55;1.90;67.60
31731;DHT22;18310;55.586;12.286;2022-12-18T03:50:07;1.90;68.00
31731;DHT22;18310;55.586;12.286;2022-12-18T03:53:25;1.90;67.50
31731;DHT22;18310;55.586;12.286;2022-12-18T03:56:38;2.00;67.90
31731;DHT22;18310;55.586;12.286;2022-12-18T03:59:45;2.20;67.60
31731;DHT22;18310;55.586;12.286;2022-12-18T04:02:55;2.00;67.40
31731;DHT22;18310;55.586;12.286;2022-12-18T04:06:00;2.00;67.30
31731;DHT22;18310;55.586;12.286;2022-12-18T04:09:05;2.00;67.20
31731;DHT22;18310;55.586;12.286;2022-12-18T04:12:09;2.10;67.10
31731;DHT22;18310;55.586;12.286;2022-12-18T04:15:12;2.10;67.00
31731;DHT22;18310;55.586;12.286;2022-12-18T04:18:18;2.10;67.00
31731;DHT22;18310;55.586;12.286;2022-12-18T04:21:22;2.10;66.90
31731;DHT22;18310;55.586;12.286;2022-12-18T04:24:25;1.60;66.60
31731;DHT22;18310;55.586;12.286;2022-12-18T04:27:28;2.20;67.00
31731;DHT22;18310;55.586;12.286;2022-12-18T04:30:31;2.20;66.60
31731;DHT22;18310;55.586;12.286;2022-12-18T04:33:35;2.20;66.60
31731;DHT22;18310;55.586;12.286;2022-12-18T04:36:39;2.30;66.40
31731;DHT22;18310;55.586;12.286;2022-12-18T04:39:42;2.30;66.30
31731;DHT22;18310;55.586;12.286;2022-12-18T04:42:45;2.30;66.20
31731;DHT22;18310;55.586;12.286;2022-12-18T04:45:48;2.30;65.90
31731;DHT22;18310;55.586;12.286;2022-12-18T04:48:53;2.30;66.30
31731;DHT22;18310;55.586;12.286;2022-12-18T04:51:56;2.30;65.60
31731;DHT22;18310;55.586;12.286;2022-12-18T04:54:59;2.20;65.60
31731;DHT22;18310;55.586;12.286;2022-12-18T04:58:02;2.30;65.60
31731;DHT22;18310;55.586;12.286;2022-12-18T05:01:05;2.20;65.50
31731;DHT22;18310;55.586;12.286;2022-12-18T05:04:11;3.20;65.90
31731;DHT22;18310;55.586;12.286;2022-12-18T05:07:14;2.20;65.30
31731;DHT22;18310;55.586;12.286;2022-12-18T05:10:17;2.20;65.40
31731;DHT22;18310;55.586;12.286;2022-12-18T05:13:20;2.10;65.50
31731;DHT22;18310;55.586;12.286;2022-12-18T05:16:23;2.10;65.50
31731;DHT22;18310;55.586;12.286;2022-12-18T05:19:28;2.10;65.40
31731;DHT22;18310;55.586;12.286;2022-12-18T05:22:31;3.40;66.20
31731;DHT22;18310;55.586;12.286;2022-12-18T05:25:33;2.10;65.60
31731;DHT22;18310;55.586;12.286;2022-12-18T05:28:37;3.00;65.80
31731;DHT22;18310;55.586;12.286;2022-12-18T05:31:40;2.20;65.20
31731;DHT22;18310;55.586;12.286;2022-12-18T05:34:45;2.20;65.10
31731;DHT22;18310;55.586;12.286;2022-12-18T05:37:48;2.20;64.90
31731;DHT22;18310;55.586;12.286;2022-12-18T05:40:52;2.80;65.30
31731;DHT22;18310;55.586;12.286;2022-12-18T05:43:55;2.10;64.70
31731;DHT22;18310;55.586;12.286;2022-12-18T05:46:59;2.10;64.80
31731;DHT22;18310;55.586;12.286;2022-12-18T05:50:04;2.10;64.80
31731;DHT22;18310;55.586;12.286;2022-12-18T05:53:08;2.10;64.70
31731;DHT22;18310;55.586;12.286;2022-12-18T05:56:13;2.10;64.90
31731;DHT22;18310;55.586;12.286;2022-12-18T05:59:20;2.70;65.20
31731;DHT22;18310;55.586;12.286;2022-12-18T06:02:23;2.10;65.00
31731;DHT22;18310;55.586;12.286;2022-12-18T06:05:28;3.20;65.60
31731;DHT22;18310;55.586;12.286;2022-12-18T06:08:31;2.20;64.90
31731;DHT22;18310;55.586;12.286;2022-12-18T06:11:35;2.20;64.80
31731;DHT22;18310;55.586;12.286;2022-12-18T06:14:41;2.20;64.80
31731;DHT22;18310;55.586;12.286;2022-12-18T06:17:44;2.20;64.90
31731;DHT22;18310;55.586;12.286;2022-12-18T06:20:55;2.20;64.80
31731;DHT22;18310;55.586;12.286;2022-12-18T06:23:59;3.50;65.20
31731;DHT22;18310;55.586;12.286;2022-12-18T06:27:03;2.30;64.80
31731;DHT22;18310;55.586;12.286;2022-12-18T06:30:07;2.30;64.80
31731;DHT22;18310;55.586;12.286;2022-12-18T06:33:11;2.30;65.30
31731;DHT22;18310;55.586;12.286;2022-12-18T06:36:16;2.30;64.70
31731;DHT22;18310;55.586;12.286;2022-12-18T06:39:19;2.40;64.60
31731;DHT22;18310;55.586;12.286;2022-12-18T06:42:22;3.30;65.20
31731;DHT22;18310;55.586;12.286;2022-12-18T06:45:25;2.40;64.50
31731;DHT22;18310;55.586;12.286;2022-12-18T06:48:29;2.40;64.40
31731;DHT22;18310;55.586;12.286;2022-12-18T06:51:33;1.20;63.60
31731;DHT22;18310;55.586;12.286;2022-12-18T06:54:36;2.40;64.20
31731;DHT22;18310;55.586;12.286;2022-12-18T06:57:39;2.40;64.40
31731;DHT22;18310;55.586;12.286;2022-12-18T07:00:42;2.40;64.80
31731;DHT22;18310;55.586;12.286;2022-12-18T07:03:46;3.30;64.80
31731;DHT22;18310;55.586;12.286;2022-12-18T07:06:54;2.40;64.30
31731;DHT22;18310;55.586;12.286;2022-12-18T07:09:58;2.40;64.20
31731;DHT22;18310;55.586;12.286;2022-12-18T07:13:01;2.40;64.30
31731;DHT22;18310;55.586;12.286;2022-12-18T07:16:07;2.50;64.50
31731;DHT22;18310;55.586;12.286;2022-12-18T07:19:19;2.40;64.50
31731;DHT22;18310;55.586;12.286;2022-12-18T07:22:31;1.60;64.20
31731;DHT22;18310;55.586;12.286;2022-12-18T07:25:35;2.40;64.60
31731;DHT22;18310;55.586;12.286;2022-12-18T07:28:40;2.40;64.60
31731;DHT22;18310;55.586;12.286;2022-12-18T07:31:44;2.40;64.60
31731;DHT22;18310;55.586;12.286;2022-12-18T07:34:47;3.50;65.20
31731;DHT22;18310;55.586;12.286;2022-12-18T07:37:52;2.50;64.60
31731;DHT22;18310;55.586;12.286;2022-12-18T07:40:59;2.50;64.60
31731;DHT22;18310;55.586;12.286;2022-12-18T07:44:03;2.60;64.60
31731;DHT22;18310;55.586;12.286;2022-12-18T07:47:06;2.60;65.30
31731;DHT22;18310;55.586;12.286;2022-12-18T07:50:13;2.60;64.70
31731;DHT22;18310;55.586;12.286;2022-12-18T07:53:17;2.70;64.80
31731;DHT22;18310;55.586;12.286;2022-12-18T07:56:20;2.80;64.90
31731;DHT22;18310;55.586;12.286;2022-12-18T07:59:30;2.80;64.80
31731;DHT22;18310;55.586;12.286;2022-12-18T08:02:33;2.90;64.90
31731;DHT22;18310;55.586;12.286;2022-12-18T08:05:36;2.90;64.80
31731;DHT22;18310;55.586;12.286;2022-12-18T08:08:40;3.00;64.80
31731;DHT22;18310;55.586;12.286;2022-12-18T08:11:44;3.00;64.60
31731;DHT22;18310;55.586;12.286;2022-12-18T08:14:47;3.10;64.70
31731;DHT22;18310;55.586;12.286;2022-12-18T08:17:50;3.10;64.60
31731;DHT22;18310;55.586;12.286;2022-12-18T08:20:54;2.90;64.30
31731;DHT22;18310;55.586;12.286;2022-12-18T08:23:59;3.20;64.50
31731;DHT22;18310;55.586;12.286;2022-12-18T08:27:03;3.20;64.40
31731;DHT22;18310;55.586;12.286;2022-12-18T08:30:26;3.30;64.20
31731;DHT22;18310;55.586;12.286;2022-12-18T08:33:29;3.20;64.10
31731;DHT22;18310;55.586;12.286;2022-12-18T08:36:32;3.30;64.20
31731;DHT22;18310;55.586;12.286;2022-12-18T08:39:37;3.40;64.40
31731;DHT22;18310;55.586;12.286;2022-12-18T08:42:40;3.40;64.40
31731;DHT22;18310;55.586;12.286;2022-12-18T08:46:01;3.40;64.30
31731;DHT22;18310;55.586;12.286;2022-12-18T08:49:05;4.20;64.70
31731;DHT22;18310;55.586;12.286;2022-12-18T08:52:09;3.50;64.20
31731;DHT22;18310;55.586;12.286;2022-12-18T08:55:14;3.60;64.30
31731;DHT22;18310;55.586;12.286;2022-12-18T08:58:17;3.60;64.10
31731;DHT22;18310;55.586;12.286;2022-12-18T09:01:20;3.60;64.00
31731;DHT22;18310;55.586;12.286;2022-12-18T09:04:24;3.60;64.00
31731;DHT22;18310;55.586;12.286;2022-12-18T09:07:27;4.50;63.80
31731;DHT22;18310;55.586;12.286;2022-12-18T09:10:31;3.70;63.60
31731;DHT22;18310;55.586;12.286;2022-12-18T09:13:40;3.70;64.10
31731;DHT22;18310;55.586;12.286;2022-12-18T09:16:44;3.70;63.70
31731;DHT22;18310;55.586;12.286;2022-12-18T09:19:47;3.60;63.60
31731;DHT22;18310;55.586;12.286;2022-12-18T09:22:50;3.70;63.80
31731;DHT22;18310;55.586;12.286;2022-12-18T09:25:59;3.60;63.70
31731;DHT22;18310;55.586;12.286;2022-12-18T09:29:03;3.60;63.70
31731;DHT22;18310;55.586;12.286;2022-12-18T09:32:07;3.60;63.90
31731;DHT22;18310;55.586;12.286;2022-12-18T09:35:10;3.60;64.00
31731;DHT22;18310;55.586;12.286;2022-12-18T09:38:15;3.70;64.00
31731;DHT22;18310;55.586;12.286;2022-12-18T09:41:36;3.70;64.50
31731;DHT22;18310;55.586;12.286;2022-12-18T09:44:45;3.70;63.80
31731;DHT22;18310;55.586;12.286;2022-12-18T09:47:53;3.70;64.00
31731;DHT22;18310;55.586;12.286;2022-12-18T09:51:02;2.80;63.40
31731;DHT22;18310;55.586;12.286;2022-12-18T09:54:14;3.70;64.40
31731;DHT22;18310;55.586;12.286;2022-12-18T09:57:24;3.70;63.90
31731;DHT22;18310;55.586;12.286;2022-12-18T10:00:28;3.70;63.90
31731;DHT22;18310;55.586;12.286;2022-12-18T10:03:32;3.60;64.00
31731;DHT22;18310;55.586;12.286;2022-12-18T10:06:38;3.60;63.90
31731;DHT22;18310;55.586;12.286;2022-12-18T10:09:52;3.60;63.80
31731;DHT22;18310;55.586;12.286;2022-12-18T10:13:12;3.60;63.70
31731;DHT22;18310;55.586;12.286;2022-12-18T10:16:29;3.60;63.70
31731;DHT22;18310;55.586;12.286;2022-12-18T10:19:41;3.60;63.70
31731;DHT22;18310;55.586;12.286;2022-12-18T10:22:57;3.50;64.30
31731;DHT22;18310;55.586;12.286;2022-12-18T10:26:07;3.50;63.70
31731;DHT22;18310;55.586;12.286;2022-12-18T10:29:15;4.20;64.20
31731;DHT22;18310;55.586;12.286;2022-12-18T10:32:21;3.50;63.90
31731;DHT22;18310;55.586;12.286;2022-12-18T10:35:26;3.50;64.00
31731;DHT22;18310;55.586;12.286;2022-12-18T10:38:31;3.50;64.00
31731;DHT22;18310;55.586;12.286;2022-12-18T10:41:34;4.50;64.70
31731;DHT22;18310;55.586;12.286;2022-12-18T10:44:38;3.50;64.10
31731;DHT22;18310;55.586;12.286;2022-12-18T10:47:43;3.60;64.10
31731;DHT22;18310;55.586;12.286;2022-12-18T10:50:50;3.50;63.90
31731;DHT22;18310;55.586;12.286;2022-12-18T10:54:16;3.60;63.90
31731;DHT22;18310;55.586;12.286;2022-12-18T10:57:33;4.30;64.20
31731;DHT22;18310;55.586;12.286;2022-12-18T11:00:39;3.60;63.60
31731;DHT22;18310;55.586;12.286;2022-12-18T11:03:45;3.70;63.80
31731;DHT22;18310;55.586;12.286;2022-12-18T11:06:54;2.90;63.40
31731;DHT22;18310;55.586;12.286;2022-12-18T11:10:01;3.70;63.70
31731;DHT22;18310;55.586;12.286;2022-12-18T11:13:15;3.70;63.70
31731;DHT22;18310;55.586;12.286;2022-12-18T11:16:22;3.90;63.60
31731;DHT22;18310;55.586;12.286;2022-12-18T11:19:32;3.80;63.70
31731;DHT22;18310;55.586;12.286;2022-12-18T11:22:37;3.80;63.00
31731;DHT22;18310;55.586;12.286;2022-12-18T11:25:50;3.80;63.40
31731;DHT22;18310;55.586;12.286;2022-12-18T11:29:07;3.80;63.10
31731;DHT22;18310;55.586;12.286;2022-12-18T11:32:32;3.80;62.90
31731;DHT22;18310;55.586;12.286;2022-12-18T11:35:43;4.10;63.00
31731;DHT22;18310;55.586;12.286;2022-12-18T11:38:52;3.80;63.00
31731;DHT22;18310;55.586;12.286;2022-12-18T11:42:01;3.80;62.80
31731;DHT22;18310;55.586;12.286;2022-12-18T11:45:26;3.80;63.00
31731;DHT22;18310;55.586;12.286;2022-12-18T11:48:37;3.80;62.90
31731;DHT22;18310;55.586;12.286;2022-12-18T11:51:49;4.40;63.20
31731;DHT22;18310;55.586;12.286;2022-12-18T11:55:00;3.80;62.90
31731;DHT22;18310;55.586;12.286;2022-12-18T11:58:12;4.50;63.30
31731;DHT22;18310;55.586;12.286;2022-12-18T12:01:42;5.00;63.50
31731;DHT22;18310;55.586;12.286;2022-12-18T12:05:10;4.00;62.60
31731;DHT22;18310;55.586;12.286;2022-12-18T12:08:29;4.00;62.20
31731;DHT22;18310;55.586;12.286;2022-12-18T12:11:50;4.00;62.40
31731;DHT22;18310;55.586;12.286;2022-12-18T12:15:15;4.10;62.00
31731;DHT22;18310;55.586;12.286;2022-12-18T12:18:36;4.10;61.90
31731;DHT22;18310;55.586;12.286;2022-12-18T12:21:55;4.10;61.70
31731;DHT22;18310;55.586;12.286;2022-12-18T12:25:13;4.10;61.70
31731;DHT22;18310;55.586;12.286;2022-12-18T12:28:44;4.10;61.90
31731;DHT22;18310;55.586;12.286;2022-12-18T12:32:07;4.10;61.00
31731;DHT22;18310;55.586;12.286;2022-12-18T12:35:29;3.40;60.40
31731;DHT22;18310;55.586;12.286;2022-12-18T12:38:46;4.10;61.00
31731;DHT22;18310;55.586;12.286;2022-12-18T12:41:53;4.00;61.30
31731;DHT22;18310;55.586;12.286;2022-12-18T12:45:30;3.40;61.10
31731;DHT22;18310;55.586;12.286;2022-12-18T12:48:43;3.90;61.60
31731;DHT22;18310;55.586;12.286;2022-12-18T12:51:55;3.80;61.60
31731;DHT22;18310;55.586;12.286;2022-12-18T12:55:06;3.70;61.60
31731;DHT22;18310;55.586;12.286;2022-12-18T12:58:34;3.70;61.70
31731;DHT22;18310;55.586;12.286;2022-12-18T13:01:51;3.60;61.60
31731;DHT22;18310;55.586;12.286;2022-12-18T13:05:06;3.60;61.70
31731;DHT22;18310;55.586;12.286;2022-12-18T13:08:24;4.30;62.30
31731;DHT22;18310;55.586;12.286;2022-12-18T13:11:36;3.50;62.10
31731;DHT22;18310;55.586;12.286;2022-12-18T13:15:12;3.50;62.10
31731;DHT22;18310;55.586;12.286;2022-12-18T13:18:23;3.40;62.00
31731;DHT22;18310;55.586;12.286;2022-12-18T13:21:28;3.40;62.20
31731;DHT22;18310;55.586;12.286;2022-12-18T13:24:32;4.20;62.70
31731;DHT22;18310;55.586;12.286;2022-12-18T13:27:56;3.30;62.20
31731;DHT22;18310;55.586;12.286;2022-12-18T13:31:03;3.30;61.70
31731;DHT22;18310;55.586;12.286;2022-12-18T13:34:14;4.00;62.50
31731;DHT22;18310;55.586;12.286;2022-12-18T13:37:43;3.40;62.10
31731;DHT22;18310;55.586;12.286;2022-12-18T13:40:55;2.60;61.40
31731;DHT22;18310;55.586;12.286;2022-12-18T13:44:12;3.40;62.10
31731;DHT22;18310;55.586;12.286;2022-12-18T13:47:27;3.40;61.70
31731;DHT22;18310;55.586;12.286;2022-12-18T13:50:35;3.40;62.00
31731;DHT22;18310;55.586;12.286;2022-12-18T13:53:43;3.90;62.10
31731;DHT22;18310;55.586;12.286;2022-12-18T13:56:50;4.10;62.00
31731;DHT22;18310;55.586;12.286;2022-12-18T13:59:55;3.40;61.70
31731;DHT22;18310;55.586;12.286;2022-12-18T14:03:00;3.40;61.50
31731;DHT22;18310;55.586;12.286;2022-12-18T14:06:06;3.40;61.40
31731;DHT22;18310;55.586;12.286;2022-12-18T14:09:14;3.40;61.30
31731;DHT22;18310;55.586;12.286;2022-12-18T14:12:24;3.40;61.30
31731;DHT22;18310;55.586;12.286;2022-12-18T14:15:54;3.40;61.20
31731;DHT22;18310;55.586;12.286;2022-12-18T14:19:02;3.40;61.20
31731;DHT22;18310;55.586;12.286;2022-12-18T14:22:18;3.30;61.20
31731;DHT22;18310;55.586;12.286;2022-12-18T14:25:24;3.30;61.20
31731;DHT22;18310;55.586;12.286;2022-12-18T14:28:28;3.30;61.30
31731;DHT22;18310;55.586;12.286;2022-12-18T14:31:33;3.30;61.30
31731;DHT22;18310;55.586;12.286;2022-12-18T14:34:36;3.20;61.20
31731;DHT22;18310;55.586;12.286;2022-12-18T14:37:39;3.20;61.30
31731;DHT22;18310;55.586;12.286;2022-12-18T14:40:42;3.00;61.20
31731;DHT22;18310;55.586;12.286;2022-12-18T14:43:47;3.10;61.30
31731;DHT22;18310;55.586;12.286;2022-12-18T14:46:53;3.90;61.80
31731;DHT22;18310;55.586;12.286;2022-12-18T14:49:56;3.00;61.90
31731;DHT22;18310;55.586;12.286;2022-12-18T14:53:00;3.00;61.50
31731;DHT22;18310;55.586;12.286;2022-12-18T14:56:10;2.90;61.50
31731;DHT22;18310;55.586;12.286;2022-12-18T14:59:21;2.90;61.60
31731;DHT22;18310;55.586;12.286;2022-12-18T15:02:27;2.90;61.70
31731;DHT22;18310;55.586;12.286;2022-12-18T15:05:31;2.80;61.80
31731;DHT22;18310;55.586;12.286;2022-12-18T15:08:36;2.80;61.90
31731;DHT22;18310;55.586;12.286;2022-12-18T15:11:46;2.70;62.00
31731;DHT22;18310;55.586;12.286;2022-12-18T15:14:50;2.80;62.20
31731;DHT22;18310;55.586;12.286;2022-12-18T15:18:02;2.80;62.30
31731;DHT22;18310;55.586;12.286;2022-12-18T15:21:10;2.90;62.60
31731;DHT22;18310;55.586;12.286;2022-12-18T15:24:20;2.60;62.60
31731;DHT22;18310;55.586;12.286;2022-12-18T15:27:31;2.50;62.70
31731;DHT22;18310;55.586;12.286;2022-12-18T15:30:37;2.50;63.20
31731;DHT22;18310;55.586;12.286;2022-12-18T15:33:43;2.50;63.20
31731;DHT22;18310;55.586;12.286;2022-12-18T15:36:50;2.40;63.30
31731;DHT22;18310;55.586;12.286;2022-12-18T15:39:53;2.30;63.30
31731;DHT22;18310;55.586;12.286;2022-12-18T15:42:56;2.30;63.50
31731;DHT22;18310;55.586;12.286;2022-12-18T15:46:19;2.30;63.70
31731;DHT22;18310;55.586;12.286;2022-12-18T15:49:25;2.20;63.70
31731;DHT22;18310;55.586;12.286;2022-12-18T15:52:28;2.80;64.20
31731;DHT22;18310;55.586;12.286;2022-12-18T15:55:34;2.10;64.00
31731;DHT22;18310;55.586;12.286;2022-12-18T15:59:01;3.20;64.80
31731;DHT22;18310;55.586;12.286;2022-12-18T16:02:15;2.10;64.20
31731;DHT22;18310;55.586;12.286;2022-12-18T16:05:21;2.00;64.40
31731;DHT22;18310;55.586;12.286;2022-12-18T16:08:26;2.00;64.30
31731;DHT22;18310;55.586;12.286;2022-12-18T16:11:31;2.00;64.40
31731;DHT22;18310;55.586;12.286;2022-12-18T16:14:42;2.00;64.60
31731;DHT22;18310;55.586;12.286;2022-12-18T16:17:47;2.00;64.70
31731;DHT22;18310;55.586;12.286;2022-12-18T16:20:52;2.00;64.80
31731;DHT22;18310;55.586;12.286;2022-12-18T16:23:57;1.90;64.90
31731;DHT22;18310;55.586;12.286;2022-12-18T16:27:00;1.90;64.90
31731;DHT22;18310;55.586;12.286;2022-12-18T16:30:05;2.50;65.30
31731;DHT22;18310;55.586;12.286;2022-12-18T16:33:10;2.00;65.50
31731;DHT22;18310;55.586;12.286;2022-12-18T16:36:14;1.90;65.20
31731;DHT22;18310;55.586;12.286;2022-12-18T16:39:17;0.70;64.80
31731;DHT22;18310;55.586;12.286;2022-12-18T16:42:20;2.00;65.50
31731;DHT22;18310;55.586;12.286;2022-12-18T16:45:27;2.00;65.50
31731;DHT22;18310;55.586;12.286;2022-12-18T16:48:34;1.80;65.40
31731;DHT22;18310;55.586;12.286;2022-12-18T16:51:39;2.00;65.40
31731;DHT22;18310;55.586;12.286;2022-12-18T16:54:43;1.90;65.20
31731;DHT22;18310;55.586;12.286;2022-12-18T16:57:46;1.90;65.20
31731;DHT22;18310;55.586;12.286;2022-12-18T17:00:49;1.90;65.30
31731;DHT22;18310;55.586;12.286;2022-12-18T17:03:52;3.10;66.10
31731;DHT22;18310;55.586;12.286;2022-12-18T17:06:57;1.90;65.40
31731;DHT22;18310;55.586;12.286;2022-12-18T17:10:01;1.90;65.60
31731;DHT22;18310;55.586;12.286;2022-12-18T17:13:04;1.90;65.70
31731;DHT22;18310;55.586;12.286;2022-12-18T17:16:07;1.80;65.80
31731;DHT22;18310;55.586;12.286;2022-12-18T17:19:12;2.20;66.10
31731;DHT22;18310;55.586;12.286;2022-12-18T17:22:19;1.80;65.90
31731;DHT22;18310;55.586;12.286;2022-12-18T17:25:23;2.90;66.70
31731;DHT22;18310;55.586;12.286;2022-12-18T17:28:27;1.80;66.00
31731;DHT22;18310;55.586;12.286;2022-12-18T17:31:31;1.80;66.20
31731;DHT22;18310;55.586;12.286;2022-12-18T17:34:34;1.80;66.40
31731;DHT22;18310;55.586;12.286;2022-12-18T17:37:39;1.80;66.50
31731;DHT22;18310;55.586;12.286;2022-12-18T17:40:42;1.70;66.40
31731;DHT22;18310;55.586;12.286;2022-12-18T17:43:50;1.70;66.70
31731;DHT22;18310;55.586;12.286;2022-12-18T17:46:53;1.70;66.90
31731;DHT22;18310;55.586;12.286;2022-12-18T17:49:57;1.70;66.80
31731;DHT22;18310;55.586;12.286;2022-12-18T17:53:02;1.70;66.90
31731;DHT22;18310;55.586;12.286;2022-12-18T17:56:06;1.70;67.20
31731;DHT22;18310;55.586;12.286;2022-12-18T17:59:12;0.90;66.90
31731;DHT22;18310;55.586;12.286;2022-12-18T18:02:15;1.70;67.20
31731;DHT22;18310;55.586;12.286;2022-12-18T18:05:18;1.70;67.20
31731;DHT22;18310;55.586;12.286;2022-12-18T18:08:23;1.70;67.30
31731;DHT22;18310;55.586;12.286;2022-12-18T18:11:27;1.70;67.30
31731;DHT22;18310;55.586;12.286;2022-12-18T18:14:47;1.70;68.00
31731;DHT22;18310;55.586;12.286;2022-12-18T18:17:51;1.70;67.40
31731;DHT22;18310;55.586;12.286;2022-12-18T18:20:54;1.70;67.50
31731;DHT22;18310;55.586;12.286;2022-12-18T18:24:00;1.70;67.60
31731;DHT22;18310;55.586;12.286;2022-12-18T18:27:03;1.70;67.70
31731;DHT22;18310;55.586;12.286;2022-12-18T18:30:08;1.70;67.70
31731;DHT22;18310;55.586;12.286;2022-12-18T18:33:12;1.80;67.90
31731;DHT22;18310;55.586;12.286;2022-12-18T18:36:15;1.80;67.70
31731;DHT22;18310;55.586;12.286;2022-12-18T18:39:20;1.80;67.90
31731;DHT22;18310;55.586;12.286;2022-12-18T18:42:23;1.80;67.90
31731;DHT22;18310;55.586;12.286;2022-12-18T18:45:26;1.80;67.90
31731;DHT22;18310;55.586;12.286;2022-12-18T18:48:31;1.80;67.90
31731;DHT22;18310;55.586;12.286;2022-12-18T18:51:37;1.80;68.10
31731;DHT22;18310;55.586;12.286;2022-12-18T18:54:42;1.90;68.10
31731;DHT22;18310;55.586;12.286;2022-12-18T18:58:06;1.90;68.40
31731;DHT22;18310;55.586;12.286;2022-12-18T19:01:11;1.60;68.50
31731;DHT22;18310;55.586;12.286;2022-12-18T19:04:15;2.20;68.90
31731;DHT22;18310;55.586;12.286;2022-12-18T19:07:18;2.50;69.10
31731;DHT22;18310;55.586;12.286;2022-12-18T19:10:33;1.90;68.70
31731;DHT22;18310;55.586;12.286;2022-12-18T19:13:36;2.00;68.90
31731;DHT22;18310;55.586;12.286;2022-12-18T19:16:39;2.00;68.90
31731;DHT22;18310;55.586;12.286;2022-12-18T19:19:42;2.00;69.00
31731;DHT22;18310;55.586;12.286;2022-12-18T19:22:46;2.10;69.90
31731;DHT22;18310;55.586;12.286;2022-12-18T19:26:00;2.10;69.20
31731;DHT22;18310;55.586;12.286;2022-12-18T19:29:24;2.10;69.20
31731;DHT22;18310;55.586;12.286;2022-12-18T19:32:28;2.10;69.20
31731;DHT22;18310;55.586;12.286;2022-12-18T19:35:32;2.20;69.40
31731;DHT22;18310;55.586;12.286;2022-12-18T19:38:35;2.10;69.40
31731;DHT22;18310;55.586;12.286;2022-12-18T19:41:42;2.20;70.30
31731;DHT22;18310;55.586;12.286;2022-12-18T19:44:45;2.20;69.60